St. George, Utah Weather observations

Data are for observation ending at time listed.
 Day   Time    Ave.   Ave.  Ave.  Vector   Max.   Stn.    Total    Solar   Ave.  
  of    of     Air    Rel.  Wind   Wind    Wind   Baro.  Precip.   Rad.    Soil  
Year   Day     Temp.  Hum.  Speed  Dir.    Gust   Pres.                    Temp. 
2015   (MST)    F      %     mph   deg.    mph     mb.     in.     W/m2     F   
------------------------------------------------------------------------------
 141   16:50   77.4    14    1.9   301      4.5   913.0    0.00     235    69.7
 141   17:00   77.6    14    2.3   272      6.6   912.9    0.00     257    69.8
 141   17:10   77.1    16    5.3   240     13.1   913.0    0.00     359    69.8
 141   17:20   76.3    18    5.3   245     12.7   913.1    0.00     275    69.9
 141   17:30   76.8    17    3.7   258     12.1   913.1    0.00     466    70.0
 141   17:40   77.2    16    4.9   250     12.0   913.0    0.00     276    70.0
 141   17:50   76.1    16    3.5   260      9.3   913.0    0.00     191    70.1
 141   18:00   75.9    16    3.6   256     10.4   913.0    0.00     248    70.2
 141   18:10   75.5    16    4.8   248     13.0   913.0    0.00     163    70.2
 141   18:20   75.1    15    5.6   237     11.4   913.1    0.00     143    70.3
 141   18:30   75.0    16    3.2   246      7.3   913.1    0.00     108    70.3
 141   18:40   75.1    15    3.2   244      8.5   913.2    0.00      78    70.4
 141   18:50   74.8    15    2.9   249      6.5   913.3    0.00      65    70.4
 141   19:00   74.7    16    2.3   257      6.0   913.3    0.00      57    70.4
 141   19:10   74.5    15    4.7   228     10.3   913.3    0.00      44    70.4
 141   19:20   74.4    16    2.7   244      6.6   913.3    0.00      38    70.4
 141   19:30   74.2    16    1.8   248      6.6   913.3    0.00      22    70.4
 141   19:40   73.8    16    1.5   279      4.2   913.2    0.00       8    70.4
 141   19:50   73.2    16    1.0   254      3.1   913.2    0.00       3    70.4
 141   20:00   72.6    16    0.7   288      2.5   913.2    0.00       0    70.4
 141   20:10   72.3    17    0.7   285      2.2   913.2    0.00       0    70.4
 141   20:20   71.9    17    0.4   252      1.0   913.2    0.00       0    70.5
 141   20:30   71.1    19    0.6     2      1.6   913.2    0.00       0    70.4
 141   20:40   69.9    21    0.1    22      1.0   913.2    0.00       0    70.4
 141   20:50   69.7    20    0.6   247      1.5   913.2    0.00       0    70.4
 141   21:00   69.0    21    0.9    18      1.5   913.3    0.00       0    70.3
 141   21:10   67.9    22    0.9    34      1.8   913.4    0.00       0    70.3
 141   21:20   67.7    23    1.0   202      2.3   913.5    0.00       0    70.2
 141   21:30   67.1    23    0.4   195      2.3   913.5    0.00       0    70.2
 141   21:40   67.3    23    0.7   264      2.5   913.7    0.00       0    70.1
 141   21:50   65.9    25    0.4   112      1.3   913.8    0.00       0    70.1
 141   22:00   65.3    26    1.2   345      2.3   913.9    0.00       0    70.0
 141   22:10   65.1    27    1.2    12      3.1   914.0    0.00       0    70.0
 141   22:20   65.4    26    2.6   334      4.0   914.1    0.00       0    69.9
 141   22:30   64.6    28    1.0   333      3.1   914.1    0.00       0    69.8
 141   22:40   63.6    30    0.8   202      2.6   914.2    0.00       0    69.8
 141   22:50   62.6    31    0.8     9      1.6   914.2    0.00       0    69.7
 141   23:00   62.5    32    1.3     2      2.3   914.2    0.00       0    69.6
 141   23:10   62.5    32    0.3   354      1.2   914.3    0.00       0    69.5
 141   23:20   62.6    30    0.4    45      1.5   914.4    0.00       0    69.5
 141   23:30   64.0    27    1.1    53      4.2   914.4    0.00       0    69.4
 141   23:40   64.1    27    0.9   227      2.0   914.5    0.00       0    69.3
 141   23:50   63.6    29    0.4   317      1.5   914.5    0.00       0    69.2
 142    0:00   63.5    28    1.9   325      4.5   914.6    0.00       0    69.2
 142    0:10   64.8    26    2.1   354      5.3   914.6    0.00       0    69.1
 142    0:20   64.5    27    0.8   238      2.7   914.7    0.00       0    69.0
 142    0:30   63.2    29    1.0   281      2.8   914.8    0.00       0    69.0
 142    0:40   63.2    29    1.8   358      3.0   914.8    0.00       0    68.9
 142    0:50   63.2    29    1.3     5      3.5   914.8    0.00       0    68.8
 142    1:00   63.3    29    1.4    28      3.1   914.8    0.00       0    68.8
 142    1:10   63.0    29    0.8   229      2.2   914.9    0.00       0    68.7
 142    1:20   62.4    30    0.8    18      1.7   914.9    0.00       0    68.6
 142    1:30   62.4    30    0.7   332      2.0   914.9    0.00       0    68.6
 142    1:40   62.2    31    1.2    17      3.2   914.8    0.00       0    68.5
 142    1:50   62.4    31    1.1    50      3.3   914.8    0.00       0    68.5
 142    2:00   62.4    31    0.8    66      3.3   914.9    0.00       0    68.4
 142    2:10   62.3    30    0.8   358      1.8   914.9    0.00       0    68.3
 142    2:20   61.8    35    0.0   275      1.1   914.9    0.00       0    68.3
 142    2:30   61.0    35    0.1   345      0.7   915.0    0.00       0    68.2
 142    2:40   60.9    35    1.2   202      2.8   915.1    0.00       0    68.2
 142    2:50   60.7    39    0.4    35      1.6   915.1    0.00       0    68.1
 142    3:00   60.5    37    0.6   338      1.8   915.1    0.00       0    68.0
 142    3:10   60.5    35    1.0   220      2.6   915.1    0.00       0    68.0
 142    3:20   59.7    41    0.9   111      4.0   915.2    0.00       0    67.9
 142    3:30   59.0    41    0.8   332      2.3   915.2    0.00       0    67.9
 142    3:40   58.5    42    0.6   331      1.8   915.2    0.00       0    67.8
 142    3:50   58.2    43    1.7   204      3.4   915.3    0.00       0    67.8
 142    4:00   57.8    44    0.3   229      1.9   915.4    0.00       0    67.7
 142    4:10   57.7    44    0.9     5      2.6   915.4    0.00       0    67.7
 142    4:20   58.0    43    0.8   252      2.0   915.4    0.00       0    67.6
 142    4:30   58.0    43    0.8   339      2.1   915.5    0.00       0    67.5
 142    4:40   58.0    43    1.0   306      2.2   915.6    0.00       0    67.5
 142    4:50   58.0    42    1.5     1      2.6   915.6    0.00       0    67.4
 142    5:00   58.2    41    1.2   357      2.3   915.6    0.00       0    67.3
 142    5:10   58.1    42    1.1     8      2.2   915.6    0.00       0    67.3
 142    5:20   58.4    40    1.9   358      2.9   915.6    0.00       2    67.2
 142    5:30   58.7    39    0.9   148      2.3   915.6    0.00       5    67.1
 142    5:40   58.6    40    1.4   207      3.2   915.7    0.00      14    67.1
 142    5:50   57.8    43    2.1   215      4.5   915.9    0.00      28    67.0
 142    6:00   58.1    42    1.4   324      3.0   915.9    0.00      38    67.0
 142    6:10   58.7    42    0.4    33      1.6   916.0    0.00      43    66.9
 142    6:20   58.7    44    0.6    50      1.5   916.0    0.00      55    66.8
 142    6:30   59.2    43    0.3   228      1.5   916.0    0.00      71    66.8
 142    6:40   59.4    44    0.8   221      1.8   916.1    0.00     107    66.7
 142    6:50   60.4    42    0.6   240      1.8   916.1    0.00     192    66.7
 142    7:00   61.5    39    1.8   193      2.9   916.2    0.00     233    66.6
 142    7:10   62.0    40    2.3   182      3.7   916.2    0.00     196    66.6
 142    7:20   62.1    35    1.8   185      3.1   916.3    0.00     242    66.5
 142    7:30   62.9    33    1.5   179      4.2   916.3    0.00     276    66.5
 142    7:40   62.9    32    1.6   205      4.0   916.2    0.00     238    66.5
 142    7:50   63.7    32    0.5    14      1.5   916.2    0.00     258    66.5
 142    8:00   65.1    30    0.9    73      2.0   916.3    0.00     262    66.5
 142    8:10   64.1    31    2.1   181      5.3   916.3    0.00     205    66.5
 142    8:20   64.1    32    1.3   283      3.5   916.3    0.00     314    66.4
 142    8:30   64.6    29    3.3   345      5.0   916.2    0.00     400    66.4
 142    8:40   65.5    29    1.9    82      4.2   916.4    0.00     242    66.4
 142    8:50   65.7    28    2.1   162      6.5   916.4    0.00     282    66.4
 142    9:00   65.7    28    3.0   216      6.1   916.3    0.00     552    66.5
 142    9:10   66.6    26    1.4   256      3.1   916.2    0.00     390    66.5
 142    9:20   67.6    26    1.3   287      3.1   916.2    0.00     614    66.5
 142    9:30   68.5    24    2.0   322      3.6   916.1    0.00     732    66.6
 142    9:40   69.6    24    2.1   201      5.0   916.0    0.00     741    66.7
 142    9:50   69.0    23    2.2   222      6.1   915.9    0.00     831    66.7
 142   10:00   70.9    23    2.3   198      6.6   915.8    0.00     806    66.8
 142   10:10   70.2    22    1.6   230      5.3   915.7    0.00     408    66.9
 142   10:20   69.3    23    3.9   197      7.0   915.7    0.00     252    67.0
 142   10:30   69.5    23    1.9   222      4.2   915.6    0.00     273    67.1
 142   10:40   70.2    22    1.8   258      5.5   915.5    0.00     330    67.2
 142   10:50   71.5    22    2.2   341      6.0   915.4    0.00     721    67.3
 142   11:00   72.3    22    2.9   262      6.8   915.3    0.00    1008    67.4
 142   11:10   72.1    22    3.1   205      7.7   915.2    0.00     753    67.6
 142   11:20   71.4    23    4.5   221     10.9   915.1    0.00     640    67.7
 142   11:30   72.1    23    6.4   206     13.3   915.0    0.00     779    67.8
 142   11:40   71.3    24    5.4   197     10.2   915.0    0.00     352    68.0
 142   11:50   71.2    24    4.0   213      7.7   915.1    0.00     239    68.1
 142   12:00   70.9    24    5.4   199      9.6   915.0    0.00     249    68.3
 142   12:10   70.7    25    3.8   161      8.4   915.0    0.00     310    68.4
 142   12:20   70.7    26    3.6   156     10.9   915.0    0.00     392    68.6
 142   12:30   70.1    25    7.9   212     16.3   915.0    0.00     486    68.7
 142   12:40   70.7    24    3.6   217     13.0   915.0    0.00     754    68.8
 142   12:50   71.2    23    3.7   193      7.7   914.9    0.00     468    68.9
 142   13:00   71.2    23    3.0   190      6.6   914.8    0.00     559    69.0
 142   13:10   71.3    23    3.7   192     10.3   914.8    0.00     281    69.1
 142   13:20   70.3    24    4.6   197     11.5   915.0    0.00     199    69.2
 142   13:30   70.1    26    6.1   185     19.1   915.3    0.00     135    69.3
 142   13:40   65.4    38   14.3   184     27.0   915.7    0.00     240    69.4
 142   13:50   62.6    44   16.7   184     33.0   915.7    0.00     604    69.5
 142   14:00   63.3    42   13.6   185     24.5   915.9    0.00     774    69.6
 142   14:10   64.3    39   12.5   190     21.0   915.9    0.00     755    69.7
 142   14:20   65.5    35   10.5   196     16.8   916.0    0.00     839    69.7
 142   14:30   65.9    35    9.8   198     15.6   916.2    0.00     696    69.7
 142   14:40   65.7    34    7.2   186     13.2   916.5    0.00     365    69.8
 142   14:50   65.4    34    7.8   186     14.8   916.5    0.00     337    69.8
 142   15:00   64.9    35    8.1   182     16.5   916.6    0.00     224    69.9
 142   15:10   64.4    36    5.9   179     13.7   916.7    0.00     169    69.9
 142   15:20   64.6    35    4.8   180     11.5   916.8    0.00     172    69.9
 142   15:30   64.5    36    5.5   170     11.7   916.9    0.00     186    70.0
 142   15:40   64.2    37    4.5   174     11.0   917.0    0.00     172    70.0
 142   15:50   64.3    37    4.4   184      8.8   917.1    0.00     191    70.0
 142   16:00   64.4    38    3.3   155     10.2   917.2    0.00     218    70.0
 142   16:10   64.6    38    2.8   124      8.0   917.3    0.00     244    70.0
 142   16:20   64.6    39    3.4   117     11.0   917.4    0.00     247    70.0
 142   16:30   63.6    40    2.9   100      6.1   917.3    0.00     228    70.0
 142   16:40   63.0    41    3.4    96     10.0   917.3    0.00     187    70.0

Return to St. George, Utah graphs page.


Western Regional Climate Center,wrcc@dri.edu